createdAt,value
2018-07-19T00:01:31.942Z,99.90
2018-07-19T00:03:59.559Z,99.90
2018-07-19T00:06:27.183Z,99.90
2018-07-19T00:08:54.770Z,99.90
2018-07-19T00:11:22.319Z,99.90
2018-07-19T00:13:50.026Z,99.90
2018-07-19T00:16:17.605Z,99.90
2018-07-19T00:18:45.215Z,99.90
2018-07-19T00:21:12.853Z,99.90
2018-07-19T00:23:40.385Z,99.90
2018-07-19T00:26:07.984Z,99.90
2018-07-19T00:28:35.568Z,99.90
2018-07-19T00:31:03.115Z,99.90
2018-07-19T00:33:30.747Z,99.90
2018-07-19T00:35:58.348Z,99.90
2018-07-19T00:40:53.755Z,99.90
2018-07-19T00:43:21.329Z,99.90
2018-07-19T00:48:16.476Z,99.90
2018-07-19T00:50:44.043Z,99.90
2018-07-19T00:53:11.667Z,99.90
2018-07-19T00:55:39.778Z,99.90
2018-07-19T00:58:07.472Z,99.90
2018-07-19T01:00:35.255Z,99.90
2018-07-19T01:03:02.920Z,99.90
2018-07-19T01:05:30.527Z,99.90
2018-07-19T01:07:58.114Z,99.90
2018-07-19T01:10:25.704Z,99.90
2018-07-19T01:12:53.556Z,99.90
2018-07-19T01:15:21.192Z,99.90
2018-07-19T01:17:48.821Z,99.90
2018-07-19T01:20:16.471Z,99.90
2018-07-19T01:22:44.152Z,99.90
2018-07-19T01:25:11.881Z,99.90
2018-07-19T01:27:39.576Z,99.90
2018-07-19T01:30:07.406Z,99.90
2018-07-19T01:32:35.241Z,99.90
2018-07-19T01:35:02.937Z,99.90
2018-07-19T01:37:30.632Z,99.90
2018-07-19T01:42:30.250Z,99.90
2018-07-19T01:44:57.918Z,99.90
2018-07-19T01:47:25.732Z,99.90
2018-07-19T01:49:53.322Z,99.90
2018-07-19T01:52:20.981Z,99.90
2018-07-19T01:54:48.608Z,99.90
2018-07-19T01:57:17.089Z,99.90
2018-07-19T01:59:45.299Z,99.90
2018-07-19T02:02:13.067Z,99.90
2018-07-19T02:04:41.044Z,99.90
2018-07-19T02:07:08.974Z,99.90
2018-07-19T02:09:36.749Z,99.90
2018-07-19T02:12:04.375Z,99.90
2018-07-19T02:14:32.288Z,99.90
2018-07-19T02:17:00.170Z,99.90
2018-07-19T02:19:27.787Z,99.90
2018-07-19T02:21:55.473Z,99.90
2018-07-19T02:24:23.426Z,99.90
2018-07-19T02:26:51.034Z,99.90
2018-07-19T02:29:18.713Z,99.90
2018-07-19T02:31:46.312Z,99.90
2018-07-19T02:34:13.932Z,99.90
2018-07-19T02:36:41.565Z,99.90
2018-07-19T02:39:10.364Z,99.90
2018-07-19T02:41:38.228Z,99.90
2018-07-19T02:44:07.212Z,99.90
2018-07-19T02:46:35.256Z,99.90
2018-07-19T02:49:02.957Z,99.90
2018-07-19T02:51:30.740Z,99.90
2018-07-19T02:53:58.520Z,99.90
2018-07-19T02:56:26.172Z,99.90
2018-07-19T02:58:53.796Z,99.90
2018-07-19T03:01:21.449Z,99.90
2018-07-19T03:03:49.109Z,99.90
2018-07-19T03:08:44.332Z,99.90
2018-07-19T03:11:12.005Z,99.90
2018-07-19T03:13:39.605Z,99.90
2018-07-19T03:16:07.239Z,99.90
2018-07-19T03:18:34.986Z,99.90
2018-07-19T03:21:02.572Z,99.90
2018-07-19T03:23:30.580Z,99.90
2018-07-19T03:25:58.209Z,99.90
2018-07-19T03:28:25.800Z,99.90
2018-07-19T03:30:53.459Z,99.90
2018-07-19T03:33:21.317Z,99.90
2018-07-19T03:35:49.178Z,99.90
2018-07-19T03:38:16.789Z,99.90
2018-07-19T03:40:44.435Z,99.90
2018-07-19T03:43:12.110Z,99.90
2018-07-19T03:45:39.748Z,99.90
2018-07-19T03:48:07.404Z,99.90
2018-07-19T03:50:35.063Z,99.90
2018-07-19T03:53:02.699Z,99.90
2018-07-19T03:55:30.417Z,99.90
2018-07-19T03:57:58.084Z,99.90
2018-07-19T04:00:25.749Z,99.90
2018-07-19T04:02:53.404Z,99.90
2018-07-19T04:05:21.029Z,99.90
2018-07-19T04:07:48.698Z,99.90
2018-07-19T04:12:43.894Z,99.90
2018-07-19T04:15:11.502Z,99.90
2018-07-19T04:17:50.501Z,99.90
2018-07-19T04:20:18.142Z,99.90
2018-07-19T04:22:45.852Z,99.90
2018-07-19T04:25:13.768Z,99.90
2018-07-19T04:27:41.297Z,99.90
2018-07-19T04:30:08.972Z,99.90
2018-07-19T04:32:36.609Z,99.90
2018-07-19T04:35:04.372Z,99.90
2018-07-19T04:37:31.948Z,99.90
2018-07-19T04:42:27.264Z,99.90
2018-07-19T04:44:55.080Z,99.90
2018-07-19T04:47:22.765Z,99.90
2018-07-19T04:49:50.487Z,99.90
2018-07-19T04:52:18.112Z,99.90
2018-07-19T04:54:45.759Z,99.90
2018-07-19T04:57:13.493Z,99.90
2018-07-19T04:59:41.125Z,99.90
2018-07-19T05:02:08.974Z,99.90
2018-07-19T05:04:36.596Z,99.90
2018-07-19T05:07:04.368Z,99.90
2018-07-19T05:09:32.017Z,99.90
2018-07-19T05:11:59.603Z,99.90
2018-07-19T05:14:27.253Z,99.90
2018-07-19T05:16:54.854Z,99.90
2018-07-19T05:19:22.464Z,99.90
2018-07-19T05:21:50.277Z,99.90
2018-07-19T05:24:17.949Z,99.90
2018-07-19T05:26:45.621Z,99.90
2018-07-19T05:31:40.865Z,99.90
2018-07-19T05:36:37.042Z,99.90
2018-07-19T05:39:07.278Z,99.90
2018-07-19T05:41:34.904Z,99.90
2018-07-19T05:44:02.646Z,99.90
2018-07-19T05:46:30.372Z,99.90
2018-07-19T05:48:58.125Z,99.90
2018-07-19T05:51:25.719Z,99.90
2018-07-19T05:53:53.353Z,99.90
2018-07-19T05:56:20.975Z,99.90
2018-07-19T05:58:48.580Z,99.90
2018-07-19T06:01:16.208Z,99.90
2018-07-19T06:03:43.921Z,99.90
2018-07-19T06:06:11.682Z,99.90
2018-07-19T06:08:39.315Z,99.90
2018-07-19T06:11:06.935Z,99.90
2018-07-19T06:13:34.562Z,99.90
2018-07-19T06:16:02.221Z,99.90
2018-07-19T06:18:29.957Z,99.90
2018-07-19T06:20:57.517Z,99.90
2018-07-19T06:23:25.192Z,99.90
2018-07-19T06:25:52.873Z,99.90
2018-07-19T06:28:20.522Z,99.90
2018-07-19T06:30:48.116Z,99.90
2018-07-19T06:33:15.800Z,99.90
2018-07-19T06:35:43.416Z,99.90
2018-07-19T06:38:11.125Z,99.90
2018-07-19T06:43:06.356Z,99.90
2018-07-19T06:50:29.210Z,96.80
2018-07-19T06:52:56.894Z,96.40
2018-07-19T06:55:24.560Z,97.20
2018-07-19T06:57:52.404Z,96.00
2018-07-19T07:00:20.028Z,95.60
2018-07-19T07:02:47.675Z,96.20
2018-07-19T07:05:15.308Z,96.40
2018-07-19T07:07:42.968Z,94.40
2018-07-19T07:10:10.628Z,93.60
2018-07-19T07:12:38.324Z,93.80
2018-07-19T07:15:06.225Z,89.70
2018-07-19T07:17:33.844Z,89.80
2018-07-19T07:20:01.496Z,88.80
2018-07-19T07:22:29.051Z,82.20
2018-07-19T07:24:57.208Z,87.30
2018-07-19T07:27:24.842Z,84.30
2018-07-19T07:29:52.538Z,80.70
2018-07-19T07:32:20.263Z,82.30
2018-07-19T07:34:47.948Z,74.20
2018-07-19T07:37:15.840Z,72.40
2018-07-19T07:39:43.617Z,66.40
2018-07-19T07:42:11.316Z,63.00
2018-07-19T07:44:39.018Z,57.50
2018-07-19T07:47:06.818Z,55.90
2018-07-19T07:49:34.493Z,55.00
2018-07-19T07:52:02.126Z,54.60
2018-07-19T07:54:29.736Z,56.70
2018-07-19T07:56:57.392Z,56.20
2018-07-19T07:59:25.027Z,55.70
2018-07-19T08:01:52.620Z,54.70
2018-07-19T08:04:20.226Z,53.20
2018-07-19T08:06:47.893Z,52.70
2018-07-19T08:09:15.525Z,52.40
2018-07-19T08:11:43.156Z,53.10
2018-07-19T08:14:10.941Z,51.50
2018-07-19T08:16:39.593Z,54.10
2018-07-19T08:19:07.223Z,50.40
2018-07-19T08:21:35.430Z,51.00
2018-07-19T08:24:03.368Z,45.90
2018-07-19T08:26:31.033Z,44.80
2018-07-19T08:28:58.715Z,46.20
2018-07-19T08:31:26.318Z,44.40
2018-07-19T08:33:53.928Z,46.30
2018-07-19T08:36:21.562Z,46.80
2018-07-19T08:38:49.229Z,44.20
2018-07-19T08:41:16.924Z,47.00
2018-07-19T08:43:44.582Z,40.40
2018-07-19T08:46:12.229Z,45.20
2018-07-19T08:48:39.989Z,41.50
2018-07-19T08:51:07.632Z,41.80
2018-07-19T08:53:35.305Z,38.50
2018-07-19T08:56:02.920Z,36.70
2018-07-19T08:58:30.541Z,41.40
2018-07-19T09:00:59.147Z,40.50
2018-07-19T09:03:27.112Z,38.70
2018-07-19T09:05:54.735Z,37.90
2018-07-19T09:08:22.410Z,35.00
2018-07-19T09:10:50.067Z,40.40
2018-07-19T09:13:17.716Z,40.60
2018-07-19T09:15:45.368Z,34.60
2018-07-19T09:18:13.017Z,34.50
2018-07-19T09:20:40.604Z,36.50
2018-07-19T09:23:08.240Z,38.70
2018-07-19T09:25:35.858Z,36.00
2018-07-19T09:28:03.528Z,35.70
2018-07-19T09:30:31.149Z,31.60
2018-07-19T09:32:58.782Z,33.80
2018-07-19T09:35:26.412Z,33.10
2018-07-19T09:37:54.050Z,34.70
2018-07-19T09:40:21.657Z,34.10
2018-07-19T09:42:49.296Z,31.30
2018-07-19T09:45:17.027Z,33.50
2018-07-19T09:47:44.661Z,31.70
2018-07-19T09:50:12.281Z,30.60
2018-07-19T09:52:39.865Z,32.50
2018-07-19T09:55:07.452Z,33.10
2018-07-19T10:00:02.893Z,33.20
2018-07-19T10:02:30.513Z,35.50
2018-07-19T10:04:58.113Z,31.10
2018-07-19T10:07:29.314Z,31.10
2018-07-19T10:09:56.965Z,32.10
2018-07-19T10:12:24.552Z,33.30
2018-07-19T10:14:52.157Z,32.30
2018-07-19T10:17:19.753Z,30.50
2018-07-19T10:19:47.412Z,30.10
2018-07-19T10:22:14.999Z,30.20
2018-07-19T10:24:42.727Z,29.10
2018-07-19T10:27:10.400Z,25.90
2018-07-19T10:29:38.160Z,28.40
2018-07-19T10:32:05.853Z,27.60
2018-07-19T10:34:33.486Z,28.10
2018-07-19T10:37:01.156Z,28.10
2018-07-19T10:39:28.823Z,29.40
2018-07-19T10:41:56.449Z,27.60
2018-07-19T10:44:24.075Z,27.30
2018-07-19T10:46:51.704Z,24.90
2018-07-19T10:49:19.321Z,26.30
2018-07-19T10:54:14.506Z,26.60
2018-07-19T10:56:42.064Z,28.20
2018-07-19T10:59:09.800Z,25.70
2018-07-19T11:01:37.429Z,26.40
2018-07-19T11:04:05.094Z,28.80
2018-07-19T11:06:32.889Z,30.10
2018-07-19T11:09:00.631Z,26.40
2018-07-19T11:11:28.401Z,27.60
2018-07-19T11:13:56.041Z,26.50
2018-07-19T11:16:27.584Z,27.80
2018-07-19T11:18:55.163Z,27.00
2018-07-19T11:21:22.760Z,26.60
2018-07-19T11:23:50.333Z,30.30
2018-07-19T11:26:17.951Z,30.80
2018-07-19T11:28:45.662Z,30.00
2018-07-19T11:31:13.230Z,28.80
2018-07-19T11:33:40.820Z,26.90
2018-07-19T11:36:08.408Z,28.40
2018-07-19T11:38:36.010Z,28.60
2018-07-19T11:41:03.606Z,28.20
2018-07-19T11:43:31.196Z,28.50
2018-07-19T11:45:58.769Z,26.30
2018-07-19T11:48:26.362Z,25.70
2018-07-19T11:50:54.012Z,25.50
2018-07-19T11:53:21.601Z,26.10
2018-07-19T11:55:49.239Z,27.70
2018-07-19T11:58:16.838Z,28.70
2018-07-19T12:00:44.433Z,27.90
2018-07-19T12:03:12.026Z,27.00
2018-07-19T12:05:39.596Z,28.40
2018-07-19T12:08:07.184Z,27.00
2018-07-19T12:10:34.965Z,27.90
2018-07-19T12:13:02.584Z,27.30
2018-07-19T12:15:30.207Z,26.90
2018-07-19T12:17:57.772Z,27.40
2018-07-19T12:20:25.369Z,25.90
2018-07-19T12:22:53.013Z,25.90
2018-07-19T12:25:20.645Z,24.20
2018-07-19T12:27:48.237Z,24.20
2018-07-19T12:30:15.849Z,25.10
2018-07-19T12:32:43.413Z,23.60
2018-07-19T12:35:11.104Z,26.80
2018-07-19T12:37:38.682Z,26.00
2018-07-19T12:40:06.310Z,25.30
2018-07-19T12:42:36.632Z,25.10
2018-07-19T12:48:19.162Z,26.00
2018-07-19T12:51:00.055Z,26.70
2018-07-19T12:53:27.713Z,27.80
2018-07-19T12:55:59.113Z,28.40
2018-07-19T12:58:26.735Z,27.60
2018-07-19T13:00:54.374Z,28.40
2018-07-19T13:03:26.281Z,25.50
2018-07-19T13:05:59.575Z,27.30
2018-07-19T13:08:29.372Z,26.20
2018-07-19T13:16:22.480Z,24.70
2018-07-19T13:18:50.185Z,26.00
2018-07-19T13:21:23.119Z,27.50
2018-07-19T13:24:09.766Z,26.90
2018-07-19T13:26:37.746Z,27.10
2018-07-19T13:29:05.419Z,28.90
2018-07-19T13:31:34.229Z,28.20
2018-07-19T13:34:01.861Z,28.40
2018-07-19T13:36:29.526Z,25.90
2018-07-19T13:38:59.251Z,26.10
2018-07-19T13:41:29.045Z,25.40
2018-07-19T13:43:56.913Z,26.30
2018-07-19T13:46:24.505Z,25.60
2018-07-19T13:48:52.049Z,26.00
2018-07-19T13:51:25.480Z,28.90
2018-07-19T13:54:17.249Z,29.60
2018-07-19T13:56:45.021Z,26.60
2018-07-19T13:59:13.281Z,27.50
2018-07-19T14:01:53.848Z,26.30
2018-07-19T14:04:21.400Z,27.20
2018-07-19T14:06:48.981Z,26.90
2018-07-19T14:09:16.628Z,27.50
2018-07-19T14:11:44.752Z,27.70
2018-07-19T14:14:12.392Z,27.10
2018-07-19T14:16:40.085Z,27.10
2018-07-19T14:19:09.801Z,27.00
2018-07-19T14:21:37.380Z,27.00
2018-07-19T14:24:05.248Z,28.00
2018-07-19T14:26:33.000Z,28.80
2018-07-19T14:31:30.300Z,29.10
2018-07-19T14:34:01.153Z,28.40
2018-07-19T14:36:28.776Z,29.40
2018-07-19T14:38:59.964Z,28.70
2018-07-19T14:41:28.645Z,28.10
2018-07-19T14:44:09.042Z,28.00
2018-07-19T14:46:37.796Z,28.60
2018-07-19T14:49:10.112Z,29.50
2018-07-19T14:54:24.209Z,31.30
2018-07-19T14:56:51.867Z,30.00
2018-07-19T14:59:19.457Z,29.70
2018-07-19T15:01:47.334Z,30.00
2018-07-19T15:04:15.009Z,31.70
2018-07-19T15:07:06.992Z,32.00
2018-07-19T15:09:34.863Z,30.80
2018-07-19T15:12:02.590Z,31.00
2018-07-19T15:14:30.184Z,31.50
2018-07-19T15:16:58.264Z,28.50
2018-07-19T15:19:25.845Z,30.20
2018-07-19T15:21:53.438Z,29.50
2018-07-19T15:24:21.044Z,30.00
2018-07-19T15:26:48.669Z,29.70
2018-07-19T15:31:43.798Z,29.10
2018-07-19T15:34:11.424Z,28.20
2018-07-19T15:36:39.037Z,28.50
2018-07-19T15:39:08.536Z,29.50
2018-07-19T15:41:36.104Z,29.00
2018-07-19T15:44:10.796Z,29.60
2018-07-19T15:46:38.400Z,28.80
2018-07-19T15:49:09.120Z,30.60
2018-07-19T15:51:36.714Z,31.80
2018-07-19T15:54:04.401Z,30.50
2018-07-19T15:56:31.985Z,28.70
2018-07-19T15:59:00.518Z,29.60
2018-07-19T16:01:28.222Z,31.60
2018-07-19T16:03:55.852Z,30.90
2018-07-19T16:06:23.492Z,32.20
2018-07-19T16:08:51.136Z,31.50
2018-07-19T16:11:18.784Z,30.30
2018-07-19T16:13:46.388Z,31.50
2018-07-19T16:16:13.956Z,31.70
2018-07-19T16:18:41.600Z,30.80
2018-07-19T16:21:09.170Z,31.60
2018-07-19T16:23:36.792Z,31.70
2018-07-19T16:26:08.002Z,29.20
2018-07-19T16:28:35.617Z,30.00
2018-07-19T16:33:30.786Z,30.90
2018-07-19T16:35:58.407Z,30.90
2018-07-19T16:38:26.106Z,30.90
2018-07-19T16:40:53.743Z,32.20
2018-07-19T16:43:22.328Z,33.60
2018-07-19T16:45:50.068Z,34.50
2018-07-19T16:48:17.692Z,34.20
2018-07-19T16:50:45.277Z,34.00
2018-07-19T16:53:12.896Z,34.60
2018-07-19T16:55:40.538Z,34.40
2018-07-19T16:58:08.220Z,33.50
2018-07-19T17:00:35.921Z,34.40
2018-07-19T17:03:03.632Z,34.10
2018-07-19T17:05:31.397Z,34.20
2018-07-19T17:08:03.560Z,32.70
2018-07-19T17:10:31.264Z,33.30
2018-07-19T17:12:59.075Z,34.70
2018-07-19T17:15:26.759Z,35.30
2018-07-19T17:17:54.401Z,36.00
2018-07-19T17:20:21.999Z,36.20
2018-07-19T17:22:49.641Z,37.30
2018-07-19T17:25:19.381Z,34.20
2018-07-19T17:27:47.083Z,35.70
2018-07-19T17:30:25.269Z,35.90
2018-07-19T17:32:52.971Z,36.80
2018-07-19T17:35:28.713Z,36.90
2018-07-19T17:37:56.402Z,37.30
2018-07-19T17:40:24.143Z,36.20
2018-07-19T17:42:51.721Z,37.60
2018-07-19T17:45:23.549Z,38.60
2018-07-19T17:47:51.276Z,38.50
2018-07-19T17:50:18.868Z,38.40
2018-07-19T17:52:46.623Z,38.50
2018-07-19T17:57:52.399Z,38.40
2018-07-19T18:00:20.089Z,38.60
2018-07-19T18:02:47.854Z,39.00
2018-07-19T18:05:15.646Z,39.00
2018-07-19T18:07:43.292Z,39.10
2018-07-19T18:10:11.158Z,40.00
2018-07-19T18:12:38.807Z,39.60
2018-07-19T18:15:06.426Z,41.30
2018-07-19T18:17:34.072Z,40.90
2018-07-19T18:20:01.695Z,39.80
2018-07-19T18:22:29.401Z,40.60
2018-07-19T18:25:07.461Z,40.80
2018-07-19T18:27:36.708Z,41.00
2018-07-19T18:30:05.670Z,41.50
2018-07-19T18:32:33.323Z,41.90
2018-07-19T18:35:01.158Z,42.30
2018-07-19T18:39:56.348Z,43.20
2018-07-19T18:42:24.132Z,43.80
2018-07-19T18:44:53.833Z,44.40
2018-07-19T18:47:21.477Z,44.60
2018-07-19T18:49:49.119Z,44.90
2018-07-19T18:52:17.058Z,45.00
2018-07-19T18:54:49.909Z,45.30
2018-07-19T18:57:18.427Z,45.80
2018-07-19T18:59:46.164Z,46.10
2018-07-19T19:02:13.885Z,46.30
2018-07-19T19:04:41.550Z,46.40
2018-07-19T19:07:09.161Z,46.90
2018-07-19T19:09:36.845Z,46.90
2018-07-19T19:12:04.524Z,47.10
2018-07-19T19:14:32.396Z,48.00
2018-07-19T19:17:00.004Z,48.10
2018-07-19T19:19:27.754Z,48.30
2018-07-19T19:21:55.534Z,48.70
2018-07-19T19:24:23.381Z,49.10
2018-07-19T19:26:51.021Z,49.30
2018-07-19T19:29:18.796Z,49.40
2018-07-19T19:31:46.455Z,49.90
2018-07-19T19:34:14.192Z,50.20
2018-07-19T19:36:42.077Z,50.60
2018-07-19T19:39:11.926Z,51.20
2018-07-19T19:41:39.889Z,51.60
2018-07-19T19:44:07.821Z,51.80
2018-07-19T19:46:35.529Z,51.90
2018-07-19T19:49:03.203Z,52.10
2018-07-19T19:51:30.903Z,52.30
2018-07-19T19:53:58.647Z,52.00
2018-07-19T19:56:26.317Z,52.60
2018-07-19T19:58:53.917Z,52.70
2018-07-19T20:01:21.562Z,53.10
2018-07-19T20:03:49.282Z,53.50
2018-07-19T20:06:17.932Z,53.80
2018-07-19T20:08:45.538Z,54.40
2018-07-19T20:11:13.241Z,55.00
2018-07-19T20:13:40.853Z,55.70
2018-07-19T20:16:08.443Z,56.00
2018-07-19T20:18:36.046Z,56.30
2018-07-19T20:21:03.734Z,56.30
2018-07-19T20:23:31.491Z,56.40
2018-07-19T20:25:59.126Z,56.20
2018-07-19T20:28:26.728Z,56.70
2018-07-19T20:30:54.336Z,57.50
2018-07-19T20:33:21.930Z,57.80
2018-07-19T20:35:49.576Z,58.00
2018-07-19T20:38:17.157Z,57.90
2018-07-19T20:40:44.800Z,58.20
2018-07-19T20:43:12.545Z,58.50
2018-07-19T20:45:40.164Z,59.10
2018-07-19T20:48:07.883Z,59.50
2018-07-19T20:50:35.530Z,59.50
2018-07-19T20:53:03.113Z,59.50
2018-07-19T20:55:31.740Z,59.90
2018-07-19T20:57:59.581Z,59.80
2018-07-19T21:00:27.192Z,59.80
2018-07-19T21:02:54.745Z,60.30
2018-07-19T21:05:22.576Z,61.30
2018-07-19T21:07:50.164Z,61.90
2018-07-19T21:12:45.371Z,63.60
2018-07-19T21:15:13.038Z,64.40
2018-07-19T21:17:40.673Z,65.00
2018-07-19T21:20:08.311Z,65.80
2018-07-19T21:22:35.904Z,66.90
2018-07-19T21:25:03.724Z,68.20
2018-07-19T21:27:31.387Z,68.70
2018-07-19T21:32:26.767Z,70.40
2018-07-19T21:34:54.426Z,71.10
2018-07-19T21:37:22.032Z,72.10
2018-07-19T21:39:49.666Z,72.60
2018-07-19T21:42:17.324Z,73.10
2018-07-19T21:44:44.929Z,72.90
2018-07-19T21:47:12.632Z,73.10
2018-07-19T21:49:40.273Z,74.00
2018-07-19T21:52:07.932Z,75.10
2018-07-19T21:54:35.496Z,76.60
2018-07-19T21:57:03.164Z,76.10
2018-07-19T21:59:30.776Z,77.10
2018-07-19T22:01:58.526Z,77.70
2018-07-19T22:04:26.228Z,77.70
2018-07-19T22:06:53.925Z,78.60
2018-07-19T22:09:22.853Z,79.50
2018-07-19T22:11:51.084Z,79.80
2018-07-19T22:14:18.724Z,80.40
2018-07-19T22:16:46.373Z,80.80
2018-07-19T22:19:13.967Z,81.00
2018-07-19T22:21:41.565Z,82.00
2018-07-19T22:24:09.217Z,82.70
2018-07-19T22:26:36.847Z,82.90
2018-07-19T22:29:04.536Z,84.10
2018-07-19T22:31:32.108Z,84.10
2018-07-19T22:33:59.689Z,84.00
2018-07-19T22:36:27.269Z,84.40
2018-07-19T22:38:54.920Z,84.30
2018-07-19T22:41:22.543Z,84.60
2018-07-19T22:43:50.372Z,84.10
2018-07-19T22:46:17.998Z,84.30
2018-07-19T22:48:45.660Z,85.00
2018-07-19T22:51:13.314Z,85.60
2018-07-19T22:53:40.926Z,85.70
2018-07-19T22:56:08.576Z,86.70
2018-07-19T22:58:36.181Z,87.00
2018-07-19T23:01:03.822Z,86.90
2018-07-19T23:03:31.453Z,87.10
2018-07-19T23:05:59.051Z,87.90
2018-07-19T23:08:26.644Z,88.90
2018-07-19T23:10:54.225Z,89.40
2018-07-19T23:13:21.804Z,89.70
2018-07-19T23:15:49.391Z,90.00
2018-07-19T23:18:17.064Z,90.40
2018-07-19T23:20:44.857Z,90.80
2018-07-19T23:23:12.476Z,90.80
2018-07-19T23:25:40.151Z,91.30
2018-07-19T23:28:08.656Z,91.90
2018-07-19T23:30:36.992Z,91.80
2018-07-19T23:33:04.787Z,92.00
2018-07-19T23:35:37.656Z,92.10
2018-07-19T23:38:08.379Z,92.20
2018-07-19T23:40:38.889Z,92.10
2018-07-19T23:43:19.290Z,92.10
2018-07-19T23:45:52.556Z,92.50
2018-07-19T23:48:20.416Z,92.80
2018-07-19T23:50:48.012Z,93.10
2018-07-19T23:53:15.645Z,93.40
2018-07-19T23:55:43.241Z,93.70
2018-07-19T23:58:10.946Z,94.10
